»·PEaware :: AAL1168 KSLC-KPHX

AAL1168 :: KSLC-KPHX

FLIGHT INFORMATION

Flight Status: Arrived
Operator:
American Airlines
More flights by this operator :: More flights under this callsign
Pilot: Dave P. (45)
Aircraft: BOEING 737-800
(B738)
More flights by this aircraft type
Origin: KSLC Salt Lake City Intl
United States
Destination: KPHX Phoenix Sky Harbor Intl
United States
More flights between these airports :: More routes between these airports
Route: +EDETH5 MLF CORKR TENTS BRUSR1
File this flight plan on PilotEdge
Remarks: PBN / A1B1C1D1S1S2 DOF / 180516 REG / N738PM EET / KZLA0035 KZAB0053 OPR / AAL PER / C RMK / TCAS SIMBRIEF
Altitude:
(Current/Filed)
37,000ft
Speed:
(Current/Filed)
458kts
Departed: 15-May-18 05:51 PM
Arrived: 15-May-18 07:10 PM
Distance/Time
Traveled:
441nm/1:19
Distance/Time
To Go:
Arrived

Flight Plot

Page will automatically refresh every two minutes.

Flight plan parsing failed; only flown route is shown


Map Options




Map Legend


Flown Route
Filed Route
Departure Airport
Arrival Airport
Navaid (VOR, NDB)
Fix

Horizontal Profiles

Position Reports

Time Latitude Longitude Heading Altitude Ground
Speed
15-May-18 17:14 40.784844 -111.978341 355 4235ft 0kts
15-May-18 17:15 40.784844 -111.978341 355 4235ft 0kts
15-May-18 17:16 40.784844 -111.978341 355 4235ft 0kts
15-May-18 17:17 40.784844 -111.978341 355 4235ft 0kts
15-May-18 17:18 40.784844 -111.978341 355 4235ft 0kts
15-May-18 17:19 40.784844 -111.978341 355 4235ft 0kts
15-May-18 17:20 40.784844 -111.978341 355 4235ft 0kts
15-May-18 17:21 40.784844 -111.978341 355 4235ft 0kts
15-May-18 17:22 40.784844 -111.978341 355 4235ft 0kts
15-May-18 17:23 40.784844 -111.978341 355 4235ft 0kts
15-May-18 17:24 40.784844 -111.978341 355 4235ft 0kts
15-May-18 17:25 40.784844 -111.978341 355 4235ft 0kts
15-May-18 17:26 40.784844 -111.978341 355 4235ft 0kts
15-May-18 17:27 40.784844 -111.978341 355 4235ft 0kts
15-May-18 17:28 40.784844 -111.978341 355 4235ft 0kts
15-May-18 17:29 40.784844 -111.978341 355 4235ft 0kts
15-May-18 17:30 40.784844 -111.978341 355 4235ft 0kts
15-May-18 17:31 40.784844 -111.978341 355 4235ft 0kts
15-May-18 17:32 40.784844 -111.978341 355 4235ft 0kts
15-May-18 17:33 40.784844 -111.978341 355 4235ft 0kts
15-May-18 17:34 40.784844 -111.978341 355 4235ft 0kts
15-May-18 17:35 40.784844 -111.978341 355 4235ft 0kts
15-May-18 17:36 40.784844 -111.978341 355 4235ft 0kts
15-May-18 17:37 40.784844 -111.978341 355 4235ft 0kts
15-May-18 17:38 40.784844 -111.978341 355 4235ft 0kts
15-May-18 17:39 40.784844 -111.978341 355 4235ft 0kts
15-May-18 17:40 40.784844 -111.978341 355 4235ft 0kts
15-May-18 17:41 40.784844 -111.978341 355 4235ft 0kts
15-May-18 17:42 40.784297 -111.978289 355 4235ft 2kts
15-May-18 17:43 40.784141 -111.978275 355 4235ft 0kts
15-May-18 17:44 40.784229 -111.978216 48 4235ft 3kts
15-May-18 17:45 40.784038 -111.977123 84 4235ft 0kts
15-May-18 17:46 40.781230 -111.975967 174 4235ft 22kts
15-May-18 17:47 40.775294 -111.975265 173 4235ft 14kts
15-May-18 17:48 40.774470 -111.974081 65 4235ft 0kts
15-May-18 17:49 40.774471 -111.974079 65 4235ft 0kts
15-May-18 17:50 40.775532 -111.973147 355 4235ft 9kts
15-May-18 17:51 40.803538 -111.976413 354 4578ft 169kts
15-May-18 17:52 40.829162 -112.022519 272 6589ft 215kts
15-May-18 17:53 40.828502 -112.113291 262 8696ft 261kts
15-May-18 17:54 40.809852 -112.212471 241 11192ft 286kts
15-May-18 17:55 40.747696 -112.275469 200 14281ft 290kts
15-May-18 17:56 40.666551 -112.295142 188 17288ft 301kts
15-May-18 17:57 40.581772 -112.308925 189 19989ft 313kts
15-May-18 17:58 40.494175 -112.326400 191 22450ft 324kts
15-May-18 17:59 40.402405 -112.345646 191 23253ft 347kts
15-May-18 18:00 40.303348 -112.382528 208 23903ft 394kts
15-May-18 18:01 40.204843 -112.451783 210 25536ft 408kts
15-May-18 18:02 40.103571 -112.523086 210 27123ft 417kts
15-May-18 18:03 40.000348 -112.595481 211 28520ft 425kts
15-May-18 18:04 39.895014 -112.669557 211 29856ft 431kts
15-May-18 18:05 39.790222 -112.742683 211 31480ft 427kts
15-May-18 18:06 39.683878 -112.810156 201 32930ft 429kts
15-May-18 18:07 39.565217 -112.835931 191 34314ft 432kts
15-May-18 18:08 39.445738 -112.854121 190 35474ft 432kts
15-May-18 18:09 39.326304 -112.871906 190 36567ft 432kts
15-May-18 18:10 39.206317 -112.889662 190 37070ft 434kts
15-May-18 18:11 39.086936 -112.907329 191 37078ft 432kts
15-May-18 18:12 38.967127 -112.924848 190 37080ft 432kts
15-May-18 18:13 38.847796 -112.942323 191 37078ft 432kts
15-May-18 18:14 38.728479 -112.959790 191 37073ft 432kts
15-May-18 18:15 38.608700 -112.977281 191 37067ft 432kts
15-May-18 18:16 38.489414 -112.994583 191 37061ft 432kts
15-May-18 18:17 38.369813 -113.008333 183 37060ft 437kts
15-May-18 18:18 38.247778 -112.982026 173 37067ft 446kts
15-May-18 18:19 38.126516 -112.948643 173 37083ft 446kts
15-May-18 18:20 38.004615 -112.915117 173 37102ft 447kts
15-May-18 18:21 37.882829 -112.881578 174 37115ft 449kts
15-May-18 18:22 37.781283 -112.853774 174 37118ft 449kts
15-May-18 18:23 37.658933 -112.820387 174 37124ft 448kts
15-May-18 18:24 37.537134 -112.787265 174 37130ft 448kts
15-May-18 18:25 37.415347 -112.754256 174 37134ft 448kts
15-May-18 18:26 37.293118 -112.721243 174 37133ft 448kts
15-May-18 18:27 37.171271 -112.688438 174 37128ft 449kts
15-May-18 18:28 37.049289 -112.655707 175 37124ft 449kts
15-May-18 18:29 36.926876 -112.622969 175 37136ft 449kts
15-May-18 18:30 36.784385 -112.584990 175 37140ft 449kts
15-May-18 18:31 36.661849 -112.552450 175 37147ft 449kts
15-May-18 18:32 36.559856 -112.525443 175 37130ft 450kts
15-May-18 18:33 36.437496 -112.493141 175 37138ft 450kts
15-May-18 18:34 36.314555 -112.460717 175 37154ft 451kts
15-May-18 18:35 36.191996 -112.428595 175 37173ft 451kts
15-May-18 18:36 36.069388 -112.404007 188 37193ft 437kts
15-May-18 18:37 35.948524 -112.412423 191 37200ft 433kts
15-May-18 18:38 35.828652 -112.422703 191 36195ft 430kts
15-May-18 18:39 35.708822 -112.433150 190 33385ft 434kts
15-May-18 18:40 35.588244 -112.443609 190 30895ft 428kts
15-May-18 18:41 35.470918 -112.447166 179 29282ft 423kts
15-May-18 18:42 35.352469 -112.424462 176 29205ft 435kts
15-May-18 18:43 35.232777 -112.400961 176 29201ft 434kts
15-May-18 18:44 35.113680 -112.375969 175 28131ft 432kts
15-May-18 18:45 34.996796 -112.350578 175 26537ft 420kts
15-May-18 18:46 34.883102 -112.326014 175 24998ft 411kts
15-May-18 18:47 34.772632 -112.301789 174 23492ft 398kts
15-May-18 18:48 34.663638 -112.277769 174 22040ft 393kts
15-May-18 18:49 34.557439 -112.254510 174 20612ft 384kts
15-May-18 18:50 34.454328 -112.231982 173 19236ft 367kts
15-May-18 18:51 34.356320 -112.206984 171 17802ft 353kts
15-May-18 18:52 34.261813 -112.182397 171 16417ft 344kts
15-May-18 18:53 34.169274 -112.158500 171 15100ft 335kts
15-May-18 18:54 34.081596 -112.135565 168 13867ft 310kts
15-May-18 18:55 34.000727 -112.102696 163 12694ft 305kts
15-May-18 18:56 33.921010 -112.069929 164 11571ft 299kts
15-May-18 18:57 33.842542 -112.038034 163 10403ft 295kts
15-May-18 18:58 33.767297 -112.007550 163 9244ft 281kts
15-May-18 18:59 33.694457 -111.978099 163 8490ft 278kts
15-May-18 19:00 33.623184 -111.949295 163 7839ft 263kts
15-May-18 19:01 33.554714 -111.921658 163 7262ft 250kts
15-May-18 19:02 33.526769 -111.854893 91 6494ft 244kts
15-May-18 19:03 33.527754 -111.773413 91 5257ft 243kts
15-May-18 19:04 33.497701 -111.722275 178 4723ft 183kts
15-May-18 19:05 33.461660 -111.756708 230 3999ft 170kts
15-May-18 19:06 33.440670 -111.807047 265 3998ft 176kts
15-May-18 19:07 33.440698 -111.866597 267 3169ft 176kts
15-May-18 19:08 33.440756 -111.922229 267 2294ft 155kts
15-May-18 19:09 33.440808 -111.972697 269 1482ft 152kts
15-May-18 19:10 33.440824 -112.012456 262 1143ft 17kts
15-May-18 19:11 33.439577 -112.011575 139 1143ft 10kts
15-May-18 19:12 33.438996 -112.006446 90 1143ft 16kts
15-May-18 19:13 33.438994 -112.000043 89 1143ft 22kts
15-May-18 19:14 33.437498 -111.998251 235 1143ft 7kts
15-May-18 19:15 33.437475 -111.998612 270 1143ft 0kts
15-May-18 19:16 33.437475 -111.998612 270 1143ft 0kts
15-May-18 19:17 33.437475 -111.998612 270 1143ft 0kts
15-May-18 19:18 33.437475 -111.998612 270 1143ft 0kts
15-May-18 19:19 33.437475 -111.998612 270 1143ft 0kts
15-May-18 19:20 33.437475 -111.998612 270 1143ft 0kts
15-May-18 19:21 33.437475 -111.998612 270 1143ft 0kts
15-May-18 19:22 33.437475 -111.998612 270 1143ft 0kts
15-May-18 19:23 33.437475 -111.998612 270 1143ft 0kts
15-May-18 19:24 33.437475 -111.998612 270 1143ft 0kts

Navigation Log

Ident Type
Flight plan parsing failed, navigation log unavailable